createdAt,value
2019-02-08T00:02:06.615Z,1.00
2019-02-08T00:04:37.226Z,1.00
2019-02-08T00:07:07.646Z,0.90
2019-02-08T00:09:38.151Z,1.00
2019-02-08T00:12:08.582Z,1.00
2019-02-08T00:14:39.140Z,1.00
2019-02-08T00:17:09.679Z,0.90
2019-02-08T00:19:40.130Z,0.90
2019-02-08T00:22:10.575Z,0.90
2019-02-08T00:24:40.958Z,0.90
2019-02-08T00:27:11.466Z,0.90
2019-02-08T00:29:41.977Z,0.80
2019-02-08T00:32:12.435Z,0.80
2019-02-08T00:34:43.009Z,0.80
2019-02-08T00:37:13.479Z,0.80
2019-02-08T00:39:44.044Z,0.90
2019-02-08T00:42:14.555Z,0.90
2019-02-08T00:44:44.894Z,0.80
2019-02-08T00:47:15.351Z,0.80
2019-02-08T00:49:45.968Z,0.90
2019-02-08T00:52:16.563Z,0.80
2019-02-08T00:57:16.707Z,0.60
2019-02-08T00:59:47.235Z,0.50
2019-02-08T01:02:17.711Z,0.50
2019-02-08T01:04:48.252Z,0.50
2019-02-08T01:07:18.619Z,0.40
2019-02-08T01:09:49.128Z,0.30
2019-02-08T01:12:19.057Z,0.20
2019-02-08T01:14:49.379Z,0.20
2019-02-08T01:17:19.763Z,0.30
2019-02-08T01:19:50.252Z,0.30
2019-02-08T01:22:20.727Z,0.30
2019-02-08T01:24:51.252Z,0.20
2019-02-08T01:27:21.583Z,0.10
2019-02-08T01:29:52.023Z,0.20
2019-02-08T01:32:22.534Z,0.10
2019-02-08T01:34:53.132Z,0.10
2019-02-08T01:37:23.610Z,0.10
2019-02-08T01:39:54.147Z,0.10
2019-02-08T01:42:24.574Z,0.00
2019-02-08T01:44:54.887Z,0.00
2019-02-08T01:47:25.433Z,0.10
2019-02-08T01:49:55.951Z,0.10
2019-02-08T01:52:26.319Z,0.10
2019-02-08T01:54:56.726Z,0.10
2019-02-08T01:57:27.147Z,0.20
2019-02-08T02:02:27.167Z,0.30
2019-02-08T02:04:57.979Z,0.30
2019-02-08T02:07:28.556Z,0.40
2019-02-08T02:09:58.911Z,0.40
2019-02-08T02:12:29.523Z,0.50
2019-02-08T02:14:59.854Z,0.50
2019-02-08T02:17:30.389Z,0.50
2019-02-08T02:20:00.972Z,0.50
2019-02-08T02:22:31.780Z,0.60
2019-02-08T02:25:02.141Z,0.50
2019-02-08T02:27:32.584Z,0.60
2019-02-08T02:30:02.993Z,0.60
2019-02-08T02:32:33.469Z,0.60
2019-02-08T02:35:04.150Z,0.60
2019-02-08T02:37:34.604Z,0.80
2019-02-08T02:40:05.969Z,0.90
2019-02-08T02:42:36.552Z,0.90
2019-02-08T02:45:11.763Z,0.90
2019-02-08T02:47:42.286Z,0.80
2019-02-08T02:50:12.730Z,0.90
2019-02-08T02:52:43.170Z,0.80
2019-02-08T02:55:14.571Z,0.80
2019-02-08T02:57:44.971Z,0.80
2019-02-08T03:00:19.179Z,0.80
2019-02-08T03:02:49.765Z,0.90
2019-02-08T03:05:20.180Z,0.80
2019-02-08T03:07:50.800Z,0.90
2019-02-08T03:10:21.388Z,0.90
2019-02-08T03:12:51.827Z,0.80
2019-02-08T03:15:22.534Z,0.90
2019-02-08T03:17:53.163Z,0.90
2019-02-08T03:20:23.707Z,0.90
2019-02-08T03:22:54.177Z,0.90
2019-02-08T03:25:25.459Z,0.90
2019-02-08T03:27:55.951Z,0.90
2019-02-08T03:30:30.975Z,0.90
2019-02-08T03:33:01.484Z,0.90
2019-02-08T03:35:32.001Z,0.80
2019-02-08T03:38:02.415Z,0.90
2019-02-08T03:40:32.994Z,0.80
2019-02-08T03:43:03.280Z,0.80
2019-02-08T03:48:06.575Z,0.80
2019-02-08T03:50:37.149Z,0.80
2019-02-08T03:53:08.117Z,0.70
2019-02-08T03:55:38.693Z,0.70
2019-02-08T03:58:10.077Z,0.60
2019-02-08T04:00:45.522Z,0.40
2019-02-08T04:03:16.103Z,0.30
2019-02-08T04:05:46.639Z,0.20
2019-02-08T04:08:17.375Z,0.30
2019-02-08T04:10:47.789Z,0.20
2019-02-08T04:13:18.154Z,0.10
2019-02-08T04:15:48.628Z,0.10
2019-02-08T04:18:19.139Z,-0.10
2019-02-08T04:20:49.744Z,-0.20
2019-02-08T04:23:20.225Z,-0.40
2019-02-08T04:28:20.268Z,-0.90
2019-02-08T04:30:50.735Z,-1.00
2019-02-08T04:33:21.023Z,-1.10
2019-02-08T04:35:51.456Z,-1.10
2019-02-08T04:38:21.753Z,-1.30
2019-02-08T04:40:52.142Z,-1.30
2019-02-08T04:43:22.560Z,-1.40
2019-02-08T04:45:52.927Z,-1.40
2019-02-08T04:48:23.362Z,-1.50
2019-02-08T04:50:53.494Z,-1.40
2019-02-08T04:53:23.952Z,-1.40
2019-02-08T04:55:54.228Z,-1.40
2019-02-08T04:58:24.760Z,-1.20
2019-02-08T05:00:55.304Z,-1.30
2019-02-08T05:03:25.751Z,-1.40
2019-02-08T05:05:56.045Z,-1.50
2019-02-08T05:08:26.376Z,-1.50
2019-02-08T05:10:56.775Z,-1.40
2019-02-08T05:13:27.250Z,-1.40
2019-02-08T05:15:57.564Z,-1.50
2019-02-08T05:18:28.255Z,-1.60
2019-02-08T05:20:58.715Z,-1.60
2019-02-08T05:23:29.151Z,-1.60
2019-02-08T05:25:59.464Z,-1.60
2019-02-08T05:28:29.936Z,-1.50
2019-02-08T05:31:00.433Z,-1.50
2019-02-08T05:33:31.028Z,-1.50
2019-02-08T05:36:01.352Z,-1.50
2019-02-08T05:38:31.643Z,-1.60
2019-02-08T05:41:02.160Z,-1.50
2019-02-08T05:43:32.543Z,-1.50
2019-02-08T05:46:03.083Z,-1.50
2019-02-08T05:48:33.452Z,-1.50
2019-02-08T05:51:03.923Z,-1.70
2019-02-08T05:53:34.295Z,-1.70
2019-02-08T05:56:04.660Z,-1.90
2019-02-08T05:58:35.172Z,-1.90
2019-02-08T06:01:05.749Z,-1.90
2019-02-08T06:03:36.188Z,-1.80
2019-02-08T06:06:06.834Z,-1.80
2019-02-08T06:08:37.282Z,-1.90
2019-02-08T06:11:07.751Z,-1.80
2019-02-08T06:13:38.182Z,-1.90
2019-02-08T06:16:08.559Z,-2.00
2019-02-08T06:18:39.031Z,-2.00
2019-02-08T06:21:09.435Z,-2.00
2019-02-08T06:23:40.041Z,-2.10
2019-02-08T06:26:10.452Z,-2.20
2019-02-08T06:28:40.979Z,-2.00
2019-02-08T06:31:11.571Z,-1.90
2019-02-08T06:33:42.116Z,-1.80
2019-02-08T06:36:12.528Z,-1.80
2019-02-08T06:38:42.978Z,-1.80
2019-02-08T06:41:13.620Z,-1.80
2019-02-08T06:43:44.188Z,-1.60
2019-02-08T06:46:14.619Z,-1.60
2019-02-08T06:48:44.963Z,-1.50
2019-02-08T06:51:15.391Z,-1.10
2019-02-08T06:57:20.077Z,-0.70
2019-02-08T07:00:09.448Z,-0.70
2019-02-08T07:02:46.019Z,-0.80
2019-02-08T07:05:36.514Z,-0.90
2019-02-08T07:08:12.061Z,-0.90
2019-02-08T07:10:47.256Z,-0.70
2019-02-08T07:13:22.852Z,-0.60
2019-02-08T07:16:10.123Z,-0.50
2019-02-08T07:18:50.734Z,-0.70
2019-02-08T07:21:31.297Z,-0.80
2019-02-08T07:24:10.837Z,-0.80
2019-02-08T07:27:44.139Z,-0.80
2019-02-08T07:30:25.915Z,-0.80
2019-02-08T07:33:12.434Z,-0.70
2019-02-08T07:37:50.758Z,-0.50
2019-02-08T07:40:33.886Z,-0.30
2019-02-08T07:43:39.737Z,-0.10
2019-02-08T07:46:14.382Z,0.10
2019-02-08T07:48:49.884Z,0.30
2019-02-08T07:56:08.391Z,0.40
2019-02-08T07:58:43.847Z,0.70
2019-02-08T08:02:20.411Z,0.90
2019-02-08T08:05:14.824Z,1.00
2019-02-08T08:08:48.713Z,1.20
2019-02-08T08:11:29.073Z,1.30
2019-02-08T08:15:04.625Z,1.40
2019-02-08T08:17:44.167Z,1.50
2019-02-08T08:20:53.813Z,1.80
2019-02-08T08:23:34.171Z,2.00
2019-02-08T08:27:15.152Z,2.10
2019-02-08T08:30:49.680Z,2.30
2019-02-08T08:33:28.904Z,2.60
2019-02-08T08:36:15.055Z,2.80
2019-02-08T08:40:58.861Z,2.90
2019-02-08T08:43:51.917Z,2.80
2019-02-08T08:46:38.011Z,3.00
2019-02-08T08:49:17.535Z,2.90
2019-02-08T08:52:08.560Z,2.90
2019-02-08T08:54:55.323Z,3.00
2019-02-08T08:58:10.443Z,3.10
2019-02-08T09:00:57.974Z,3.10
2019-02-08T09:03:52.502Z,3.20
2019-02-08T09:06:48.590Z,3.40
2019-02-08T09:09:47.484Z,3.50
2019-02-08T09:12:30.811Z,3.70
2019-02-08T09:16:45.790Z,3.60
2019-02-08T09:20:44.383Z,3.80
2019-02-08T09:33:28.371Z,3.90
2019-02-08T09:36:11.181Z,4.20
2019-02-08T09:38:52.387Z,4.60
2019-02-08T09:41:32.542Z,4.60
2019-02-08T09:44:25.496Z,4.80
2019-02-08T09:48:21.176Z,4.90
2019-02-08T09:51:03.118Z,5.00
2019-02-08T09:53:49.825Z,5.20
2019-02-08T09:57:09.916Z,5.40
2019-02-08T09:59:50.930Z,5.50
2019-02-08T10:03:33.714Z,5.70
2019-02-08T10:08:29.446Z,5.80
2019-02-08T10:13:14.894Z,5.90
2019-02-08T10:16:35.029Z,6.00
2019-02-08T10:19:17.696Z,6.00
2019-02-08T10:22:04.615Z,5.90
2019-02-08T10:24:45.733Z,6.00
2019-02-08T10:28:45.761Z,6.10
2019-02-08T10:31:43.732Z,6.20
2019-02-08T10:34:25.627Z,6.20
2019-02-08T10:38:08.655Z,6.40
2019-02-08T10:40:49.629Z,6.60
2019-02-08T10:45:37.579Z,6.80
2019-02-08T10:48:37.499Z,6.60
2019-02-08T10:51:48.679Z,6.50
2019-02-08T10:55:11.882Z,6.60
2019-02-08T10:57:57.467Z,6.60
2019-02-08T11:01:41.929Z,6.70
2019-02-08T11:04:19.514Z,6.80
2019-02-08T11:07:00.554Z,7.10
2019-02-08T11:09:41.120Z,6.90
2019-02-08T11:14:39.658Z,7.10
2019-02-08T11:19:54.705Z,7.10
2019-02-08T11:22:25.274Z,7.10
2019-02-08T11:24:55.715Z,6.90
2019-02-08T11:27:25.919Z,6.80
2019-02-08T11:29:56.251Z,6.90
2019-02-08T11:32:42.296Z,7.00
2019-02-08T11:34:57.117Z,7.10
2019-02-08T11:37:27.892Z,7.10
2019-02-08T11:39:58.279Z,7.30
2019-02-08T11:42:28.647Z,7.00
2019-02-08T11:44:59.045Z,7.30
2019-02-08T11:47:29.385Z,7.50
2019-02-08T11:49:59.928Z,7.30
2019-02-08T11:52:30.146Z,7.40
2019-02-08T11:55:00.476Z,7.20
2019-02-08T11:57:30.704Z,7.40
2019-02-08T12:00:01.036Z,7.50
2019-02-08T12:02:31.652Z,7.40
2019-02-08T12:05:01.942Z,7.70
2019-02-08T12:07:32.604Z,7.70
2019-02-08T12:10:02.970Z,7.50
2019-02-08T12:12:33.286Z,7.70
2019-02-08T12:15:04.020Z,7.60
2019-02-08T12:17:34.295Z,7.70
2019-02-08T12:20:05.184Z,7.90
2019-02-08T12:22:35.467Z,8.10
2019-02-08T12:25:06.851Z,7.90
2019-02-08T12:27:37.034Z,7.90
2019-02-08T12:30:10.737Z,8.00
2019-02-08T12:32:41.003Z,7.80
2019-02-08T12:35:11.448Z,7.70
2019-02-08T12:40:11.520Z,8.10
2019-02-08T12:42:41.847Z,7.70
2019-02-08T12:45:12.429Z,7.90
2019-02-08T12:47:42.867Z,7.90
2019-02-08T12:50:13.464Z,8.10
2019-02-08T12:52:43.857Z,8.00
2019-02-08T12:55:14.591Z,8.10
2019-02-08T12:57:44.948Z,8.60
2019-02-08T13:00:17.899Z,8.60
2019-02-08T13:02:48.239Z,8.10
2019-02-08T13:05:18.810Z,7.70
2019-02-08T13:07:49.423Z,8.30
2019-02-08T13:10:21.880Z,8.60
2019-02-08T13:12:52.351Z,8.80
2019-02-08T13:15:22.940Z,8.60
2019-02-08T13:17:53.251Z,8.60
2019-02-08T13:20:23.771Z,8.10
2019-02-08T13:22:54.175Z,8.20
2019-02-08T13:25:24.749Z,8.60
2019-02-08T13:27:55.016Z,9.00
2019-02-08T13:32:56.647Z,8.40
2019-02-08T13:35:27.099Z,7.90
2019-02-08T13:37:57.615Z,8.20
2019-02-08T13:40:28.307Z,8.70
2019-02-08T13:42:58.571Z,8.80
2019-02-08T13:45:29.346Z,8.90
2019-02-08T13:47:59.627Z,8.90
2019-02-08T13:50:30.267Z,8.10
2019-02-08T13:53:00.579Z,8.10
2019-02-08T13:55:31.008Z,8.40
2019-02-08T13:58:01.688Z,8.20
2019-02-08T14:00:34.111Z,8.10
2019-02-08T14:03:04.635Z,8.30
2019-02-08T14:05:35.095Z,8.60
2019-02-08T14:10:34.992Z,7.70
2019-02-08T14:13:05.470Z,7.80
2019-02-08T14:18:05.943Z,7.70
2019-02-08T14:20:36.312Z,8.00
2019-02-08T14:23:06.656Z,8.20
2019-02-08T14:25:36.976Z,8.30
2019-02-08T14:28:07.353Z,8.40
2019-02-08T14:30:39.495Z,8.50
2019-02-08T14:33:09.912Z,8.60
2019-02-08T14:35:40.351Z,8.80
2019-02-08T14:38:13.967Z,8.10
2019-02-08T14:40:44.667Z,8.00
2019-02-08T14:43:15.110Z,8.00
2019-02-08T14:45:45.575Z,8.10
2019-02-08T14:48:16.051Z,8.40
2019-02-08T14:50:46.364Z,8.40
2019-02-08T14:53:16.714Z,8.40
2019-02-08T14:55:47.040Z,7.90
2019-02-08T14:58:17.443Z,7.20
2019-02-08T15:00:47.583Z,7.00
2019-02-08T15:03:17.928Z,6.90
2019-02-08T15:05:48.274Z,6.80
2019-02-08T15:08:18.635Z,6.40
2019-02-08T15:10:50.181Z,6.50
2019-02-08T15:13:20.612Z,6.20
2019-02-08T15:15:50.755Z,6.20
2019-02-08T15:18:21.344Z,6.10
2019-02-08T15:20:51.615Z,5.90
2019-02-08T15:23:21.831Z,5.80
2019-02-08T15:25:52.254Z,5.70
2019-02-08T15:28:22.656Z,5.50
2019-02-08T15:30:52.943Z,5.40
2019-02-08T15:33:23.283Z,5.30
2019-02-08T15:35:53.658Z,5.10
2019-02-08T15:38:23.826Z,4.90
2019-02-08T15:40:55.941Z,4.70
2019-02-08T15:43:27.047Z,4.60
2019-02-08T15:45:59.970Z,4.30
2019-02-08T15:48:30.455Z,4.20
2019-02-08T15:51:00.955Z,4.00
2019-02-08T15:53:31.343Z,4.00
2019-02-08T15:56:05.710Z,4.00
2019-02-08T15:58:36.383Z,4.00
2019-02-08T16:01:09.440Z,4.00
2019-02-08T16:03:39.987Z,3.90
2019-02-08T16:06:10.400Z,3.80
2019-02-08T16:08:40.895Z,3.70
2019-02-08T16:11:11.309Z,3.70
2019-02-08T16:13:41.819Z,3.60
2019-02-08T16:16:12.660Z,3.50
2019-02-08T16:18:43.055Z,3.40
2019-02-08T16:21:13.556Z,3.40
2019-02-08T16:23:44.023Z,3.20
2019-02-08T16:26:14.295Z,3.20
2019-02-08T16:28:44.688Z,3.20
2019-02-08T16:31:15.011Z,3.20
2019-02-08T16:33:45.413Z,3.20
2019-02-08T16:36:15.632Z,3.20
2019-02-08T16:38:46.028Z,3.10
2019-02-08T16:41:16.291Z,3.10
2019-02-08T16:43:46.848Z,3.00
2019-02-08T16:46:17.580Z,2.90
2019-02-08T16:48:47.924Z,2.80
2019-02-08T16:51:18.425Z,2.70
2019-02-08T16:53:53.568Z,2.60
2019-02-08T16:56:19.111Z,2.50
2019-02-08T16:58:49.515Z,2.30
2019-02-08T17:01:19.857Z,2.00
2019-02-08T17:03:50.260Z,1.70
2019-02-08T17:06:20.528Z,1.60
2019-02-08T17:08:50.924Z,1.60
2019-02-08T17:11:21.316Z,1.60
2019-02-08T17:13:51.595Z,1.60
2019-02-08T17:16:21.974Z,1.50
2019-02-08T17:18:52.408Z,1.50
2019-02-08T17:21:23.027Z,1.40
2019-02-08T17:23:53.418Z,1.40
2019-02-08T17:28:53.411Z,1.20
2019-02-08T17:31:23.817Z,1.20
2019-02-08T17:33:54.130Z,1.20
2019-02-08T17:36:24.460Z,1.10
2019-02-08T17:41:54.427Z,1.10
2019-02-08T17:44:24.806Z,1.00
2019-02-08T17:46:55.349Z,0.90
2019-02-08T17:49:25.495Z,0.80
2019-02-08T17:51:55.860Z,0.60
2019-02-08T17:54:26.158Z,0.60
2019-02-08T17:56:56.404Z,0.60
2019-02-08T17:59:26.867Z,0.60
2019-02-08T18:01:57.136Z,0.50
2019-02-08T18:04:27.402Z,0.40
2019-02-08T18:06:57.794Z,0.30
2019-02-08T18:09:28.006Z,0.20
2019-02-08T18:11:58.359Z,0.20
2019-02-08T18:14:28.810Z,0.20
2019-02-08T18:16:59.064Z,0.10
2019-02-08T18:19:29.912Z,0.10
2019-02-08T18:22:00.203Z,0.00
2019-02-08T18:24:30.466Z,-0.10
2019-02-08T18:27:00.981Z,-0.20
2019-02-08T18:29:31.469Z,-0.10
2019-02-08T18:32:01.772Z,-0.20
2019-02-08T18:34:32.103Z,-0.20
2019-02-08T18:37:02.859Z,-0.30
2019-02-08T18:39:33.241Z,-0.40
2019-02-08T18:42:03.543Z,-0.40
2019-02-08T18:44:33.872Z,-0.50
2019-02-08T18:47:04.499Z,-0.50
2019-02-08T18:49:34.843Z,-0.60
2019-02-08T18:52:05.279Z,-0.60
2019-02-08T18:54:35.633Z,-0.70
2019-02-08T18:57:06.067Z,-0.80
2019-02-08T18:59:36.483Z,-0.80
2019-02-08T19:02:06.752Z,-0.70
2019-02-08T19:04:38.155Z,-0.70
2019-02-08T19:07:08.512Z,-0.60
2019-02-08T19:09:38.816Z,-0.50
2019-02-08T19:12:09.171Z,-0.50
2019-02-08T19:14:39.555Z,-0.60
2019-02-08T19:17:09.721Z,-0.70
2019-02-08T19:19:40.127Z,-0.90
2019-02-08T19:22:10.489Z,-1.00
2019-02-08T19:27:10.560Z,-1.10
2019-02-08T19:29:40.908Z,-1.00
2019-02-08T19:32:11.375Z,-1.00
2019-02-08T19:34:41.883Z,-1.00
2019-02-08T19:37:12.208Z,-1.00
2019-02-08T19:39:42.782Z,-0.90
2019-02-08T19:42:13.303Z,-0.90
2019-02-08T19:44:44.201Z,-0.90
2019-02-08T19:47:14.922Z,-0.90
2019-02-08T19:49:45.568Z,-0.90
2019-02-08T19:52:16.053Z,-0.90
2019-02-08T19:54:46.508Z,-0.90
2019-02-08T19:57:16.848Z,-0.90
2019-02-08T19:59:47.235Z,-0.90
2019-02-08T20:02:17.626Z,-0.90
2019-02-08T20:04:48.056Z,-0.90
2019-02-08T20:07:18.616Z,-0.90
2019-02-08T20:09:49.155Z,-1.00
2019-02-08T20:12:19.568Z,-1.00
2019-02-08T20:14:50.100Z,-1.00
2019-02-08T20:17:20.273Z,-1.00
2019-02-08T20:19:50.538Z,-1.00
2019-02-08T20:22:20.913Z,-0.90
2019-02-08T20:24:51.212Z,-0.80
2019-02-08T20:27:21.513Z,-0.70
2019-02-08T20:29:52.015Z,-0.70
2019-02-08T20:32:22.680Z,-0.70
2019-02-08T20:34:53.458Z,-0.70
2019-02-08T20:37:24.155Z,-0.70
2019-02-08T20:39:54.948Z,-0.80
2019-02-08T20:44:55.500Z,-1.00
2019-02-08T20:47:26.015Z,-1.10
2019-02-08T20:52:26.084Z,-1.00
2019-02-08T20:54:56.787Z,-1.00
2019-02-08T20:57:27.399Z,-1.00
2019-02-08T20:59:58.080Z,-1.00
2019-02-08T21:02:28.675Z,-0.90
2019-02-08T21:04:59.175Z,-0.90
2019-02-08T21:07:29.587Z,-0.90
2019-02-08T21:10:00.439Z,-0.90
2019-02-08T21:12:30.675Z,-0.80
2019-02-08T21:15:00.873Z,-0.70
2019-02-08T21:17:31.031Z,-0.60
2019-02-08T21:22:31.573Z,-0.40
2019-02-08T21:25:01.753Z,-0.40
2019-02-08T21:27:31.855Z,-0.40
2019-02-08T21:30:02.089Z,-0.40
2019-02-08T21:32:32.220Z,-0.40
2019-02-08T21:35:02.343Z,-0.40
2019-02-08T21:37:32.425Z,-0.40
2019-02-08T21:40:02.671Z,-0.40
2019-02-08T21:42:32.773Z,-0.30
2019-02-08T21:45:02.888Z,-0.30
2019-02-08T21:47:32.963Z,-0.40
2019-02-08T21:50:07.485Z,-0.40
2019-02-08T21:52:37.620Z,-0.40
2019-02-08T21:55:09.097Z,-0.30
2019-02-08T21:57:39.214Z,-0.30
2019-02-08T22:00:16.632Z,-0.20
2019-02-08T22:02:47.032Z,-0.20
2019-02-08T22:05:17.727Z,-0.10
2019-02-08T22:07:48.240Z,-0.10
2019-02-08T22:10:18.484Z,-0.20
2019-02-08T22:12:48.638Z,-0.40
2019-02-08T22:15:21.612Z,-0.40
2019-02-08T22:17:51.875Z,-0.50
2019-02-08T22:20:22.356Z,-0.40
2019-02-08T22:22:52.799Z,-0.40
2019-02-08T22:25:24.351Z,-0.40
2019-02-08T22:27:54.846Z,-0.30
2019-02-08T22:32:56.715Z,-0.40
2019-02-08T22:35:28.116Z,-0.50
2019-02-08T22:37:58.342Z,-0.50
2019-02-08T22:40:28.996Z,-0.50
2019-02-08T22:42:59.464Z,-0.60
2019-02-08T22:45:34.475Z,-0.60
2019-02-08T22:50:34.588Z,-0.60
2019-02-08T22:53:05.904Z,-0.70
2019-02-08T22:55:36.314Z,-0.70
2019-02-08T22:58:07.647Z,-0.70
2019-02-08T23:01:48.567Z,-0.80
2019-02-08T23:04:19.052Z,-0.90
2019-02-08T23:06:49.621Z,-0.90
2019-02-08T23:09:24.137Z,-0.90
2019-02-08T23:11:54.870Z,-0.90
2019-02-08T23:14:25.468Z,-0.80
2019-02-08T23:16:56.255Z,-0.70
2019-02-08T23:19:26.675Z,-0.70
2019-02-08T23:21:57.188Z,-0.60
2019-02-08T23:24:27.436Z,-0.60
2019-02-08T23:26:58.099Z,-0.60
2019-02-08T23:29:30.201Z,-0.50
2019-02-08T23:31:59.180Z,-0.60
2019-02-08T23:34:29.437Z,-0.70
2019-02-08T23:36:59.927Z,-0.70
2019-02-08T23:39:30.240Z,-0.70
2019-02-08T23:44:51.674Z,-0.70
2019-02-08T23:47:22.450Z,-0.70
2019-02-08T23:49:52.832Z,-0.70
2019-02-08T23:52:23.193Z,-0.70
2019-02-08T23:54:53.522Z,-0.60
2019-02-08T23:57:24.117Z,-0.70
2019-02-08T23:59:54.511Z,-0.70
